Albany, Georgia
Current Conditions -  °F | °C
As of 3:50 AM on Sunday 23 Nov 2014 (Local Time) from KABY Reporting Station
Overcast Overcast  
Wind Chill: 61°   Ceiling: 800
Heat Index: 61°   Visibility: 5mi
Dew Point: 61°   Wind: 8mph
Humidity: 100%   Direction: 70°ENE
Pressure: 30.03"   Gusts: NA
Location:  31.58°N, 84.15°W
Report Text: KABY 230850Z 07007KT 5SM OVC008 16/16 A3003 RMK AO2 P0023
Loading
Personal Weather Stations






























Interactive Weather Map New forecast layout! Learn more

10-Day Weather Forecast

Advertisements
Track Severe Weather on mobile